Augusta, Indiana
Current Conditions -  °F | °C
As of 1:15 PM on Tuesday 27 Jan 2015 (Local Time) from KHNB Reporting Station
Overcast Overcast  
Wind Chill:   Ceiling: 1400
Heat Index:   Visibility: 5mi
Dew Point: -3°   Wind: 0mph
Humidity: 80%   Direction: NA
Pressure: 30.12"   Gusts: NA
Location:  38.3488°N, 87.2217°W
Report Text: KHNB 271915Z AUTO 00000KT 5SM OVC014 00/M03 A3012 RMK AO1
Loading
Personal Weather Stations






























Interactive Weather Map New forecast layout! Learn more

10-Day Weather Forecast

Advertisements
Track Severe Weather on mobile